Time;durP1;ratioP1;P1;durP2;ratioP2;P2;SDS_P1;SDS_P2;PMS_P1;PMS_P2;Temp;Humidity;BMP_temperature;BMP_pressure;BME280_temperature;BME280_humidity;BME280_pressure;Samples;Min_cycle;Max_cycle;Signal;HPM_P1;HPM_P2
2022/12/16 00:00:26;;;;;;;18.65;13.95;;;18.80;28.80;;;;;;5052191;28;20021;-54
2022/12/16 00:02:52;;;;;;;19.13;14.88;;;18.70;28.70;;;;;;5054728;28;20024;-54
2022/12/16 00:05:21;;;;;;;17.65;14.20;;;18.70;28.80;;;;;;5054257;28;20024;-56
2022/12/16 00:07:47;;;;;;;19.60;14.07;;;18.70;28.80;;;;;;5053594;28;20029;-58
2022/12/16 00:10:13;;;;;;;18.70;14.15;;;18.70;28.70;;;;;;5052189;28;20043;-54
2022/12/16 00:12:39;;;;;;;18.65;14.00;;;18.70;28.70;;;;;;5054122;28;20509;-57
2022/12/16 00:15:05;;;;;;;18.60;14.05;;;18.70;28.70;;;;;;5053231;28;20124;-54
2022/12/16 00:17:31;;;;;;;18.65;13.48;;;18.70;28.70;;;;;;5052861;28;20099;-57
2022/12/16 00:19:57;;;;;;;17.20;12.98;;;18.70;28.70;;;;;;5052768;28;20037;-54
2022/12/16 00:22:23;;;;;;;17.20;13.98;;;18.70;28.70;;;;;;5050755;28;20029;-55
2022/12/16 00:24:49;;;;;;;16.17;12.50;;;18.70;28.70;;;;;;5051882;28;20017;-54
2022/12/16 00:27:15;;;;;;;17.83;13.38;;;18.60;28.70;;;;;;5052616;28;20437;-56
2022/12/16 00:29:40;;;;;;;19.63;13.38;;;18.60;28.70;;;;;;5036138;28;20437;-55
2022/12/16 00:32:06;;;;;;;17.75;13.00;;;18.60;28.70;;;;;;5050706;28;20033;-55
2022/12/16 00:34:32;;;;;;;17.30;12.75;;;18.60;28.70;;;;;;5029118;28;20037;-56
2022/12/16 00:36:58;;;;;;;17.48;12.18;;;18.60;28.70;;;;;;5051494;28;20029;-56
2022/12/16 00:39:24;;;;;;;16.23;12.73;;;18.60;28.70;;;;;;5049277;28;20028;-56
2022/12/16 00:41:50;;;;;;;15.55;11.80;;;18.60;28.70;;;;;;5050009;28;20029;-54
2022/12/16 00:44:16;;;;;;;17.85;12.65;;;18.60;28.70;;;;;;5051057;28;20123;-52
2022/12/16 00:46:42;;;;;;;17.45;12.40;;;18.60;28.70;;;;;;5052783;28;20104;-54
2022/12/16 00:49:08;;;;;;;18.33;12.63;;;18.60;28.70;;;;;;5052417;28;20448;-59
2022/12/16 00:51:34;;;;;;;17.63;12.85;;;18.60;28.70;;;;;;5052193;28;20031;-54
2022/12/16 00:54:00;;;;;;;16.10;11.60;;;18.60;28.70;;;;;;5052481;28;20031;-54
2022/12/16 00:56:26;;;;;;;15.48;11.73;;;18.60;28.70;;;;;;5052681;28;20421;-53
2022/12/16 00:58:51;;;;;;;15.65;11.80;;;18.50;28.70;;;;;;5034449;28;20033;-55
2022/12/16 01:01:17;;;;;;;16.15;11.52;;;18.50;28.70;;;;;;5051201;28;20032;-57
2022/12/16 01:03:43;;;;;;;14.80;11.05;;;18.50;28.70;;;;;;5007017;28;20423;-54
2022/12/16 01:06:11;;;;;;;28.75;12.82;;;18.50;28.70;;;;;;5043537;28;20052;-56
2022/12/16 01:08:37;;;;;;;15.70;11.32;;;18.50;28.70;;;;;;5051903;28;20425;-56
2022/12/16 01:11:03;;;;;;;16.42;11.77;;;18.50;28.70;;;;;;5051496;28;20021;-55
2022/12/16 01:13:29;;;;;;;15.75;11.60;;;18.50;28.60;;;;;;5051463;28;20024;-53
2022/12/16 01:15:59;;;;;;;13.68;10.93;;;18.50;28.60;;;;;;5052233;28;20041;-55
2022/12/16 01:18:25;;;;;;;13.88;10.70;;;18.50;28.70;;;;;;5050223;28;20154;-56
2022/12/16 01:20:50;;;;;;;13.32;10.13;;;18.50;28.70;;;;;;5053074;28;20120;-53
2022/12/16 01:23:17;;;;;;;13.48;10.10;;;18.50;28.60;;;;;;5034485;28;20464;-54
2022/12/16 01:25:42;;;;;;;15.15;10.13;;;18.50;28.70;;;;;;5050778;28;20032;-56
2022/12/16 01:28:09;;;;;;;16.02;10.32;;;18.40;28.60;;;;;;5050824;28;20890;-51
2022/12/16 01:30:34;;;;;;;14.50;10.77;;;18.40;28.60;;;;;;5052087;28;20112;-54
2022/12/16 01:33:00;;;;;;;12.38;9.75;;;18.40;28.60;;;;;;5050544;28;20401;-54
2022/12/16 01:35:26;;;;;;;14.68;10.40;;;18.40;28.60;;;;;;5050241;28;20395;-55
2022/12/16 01:37:52;;;;;;;14.27;9.98;;;18.40;28.60;;;;;;5051259;28;20384;-54
2022/12/16 01:40:21;;;;;;;15.73;9.75;;;18.40;28.60;;;;;;5052104;28;20029;-55
2022/12/16 01:42:48;;;;;;;14.85;10.38;;;18.40;28.60;;;;;;5052377;28;20072;-55
2022/12/16 01:45:34;;;;;;;14.43;10.52;;;18.40;28.60;;;;;;5031214;28;20118;-57
2022/12/16 01:48:14;;;;;;;12.55;9.25;;;18.40;28.60;;;;;;5052420;28;20040;-57
2022/12/16 01:50:41;;;;;;;13.95;10.75;;;18.40;28.60;;;;;;5050679;28;20033;-56
2022/12/16 01:53:07;;;;;;;13.38;10.27;;;18.40;28.60;;;;;;5052711;28;20398;-53
2022/12/16 01:55:39;;;;;;;13.50;9.95;;;18.40;28.60;;;;;;5052914;28;20449;-54
2022/12/16 01:58:13;;;;;;;13.75;9.95;;;18.30;28.60;;;;;;5051676;28;20021;-51
2022/12/16 02:00:40;;;;;;;12.88;9.60;;;18.30;29.20;;;;;;5052558;28;20025;-52
2022/12/16 02:03:06;;;;;;;13.73;10.60;;;18.40;28.80;;;;;;5030292;28;20111;-53
2022/12/16 02:05:35;;;;;;;13.85;10.18;;;18.30;28.80;;;;;;5052413;28;20475;-54
2022/12/16 02:08:08;;;;;;;13.80;9.82;;;18.30;28.80;;;;;;5051281;28;20103;-53
2022/12/16 02:10:43;;;;;;;13.77;10.30;;;18.30;28.80;;;;;;5049498;28;20125;-56
2022/12/16 02:13:53;;;;;;;13.23;9.20;;;18.30;28.80;;;;;;5034287;28;20033;-51
2022/12/16 02:16:46;;;;;;;13.27;9.77;;;18.30;28.80;;;;;;4949833;28;20503;-55
2022/12/16 02:19:26;;;;;;;13.88;9.60;;;18.30;28.80;;;;;;5005491;28;20353;-48
2022/12/16 02:22:01;;;;;;;13.15;9.45;;;18.30;28.80;;;;;;5030638;28;20119;-54
2022/12/16 02:24:36;;;;;;;13.98;10.00;;;18.30;28.80;;;;;;5029331;28;20033;-53
2022/12/16 02:27:27;;;;;;;13.75;9.50;;;18.30;28.80;;;;;;5050719;28;20143;-56
2022/12/16 02:30:27;;;;;;;12.45;9.52;;;18.20;28.80;;;;;;5048454;28;20116;-55
2022/12/16 02:33:32;;;;;;;13.77;9.90;;;18.20;28.80;;;;;;5047071;28;20078;-54
2022/12/16 02:36:26;;;;;;;12.57;9.43;;;18.20;28.80;;;;;;5051852;28;20036;-56
2022/12/16 02:39:12;;;;;;;12.45;9.15;;;18.20;28.80;;;;;;5050202;28;20074;-55
2022/12/16 02:42:16;;;;;;;14.35;9.18;;;18.20;28.80;;;;;;5049147;28;20064;-55
2022/12/16 02:44:52;;;;;;;11.80;9.18;;;18.20;28.80;;;;;;5050706;28;20052;-58
2022/12/16 02:47:18;;;;;;;12.48;9.65;;;18.20;28.80;;;;;;5048984;28;20349;-57
2022/12/16 02:49:52;;;;;;;13.30;9.85;;;18.20;28.80;;;;;;5032475;28;20032;-51
2022/12/16 02:52:24;;;;;;;13.23;9.60;;;18.20;28.80;;;;;;5053922;28;20016;-53
2022/12/16 02:55:02;;;;;;;12.80;9.07;;;18.20;28.80;;;;;;5051234;28;20384;-53
2022/12/16 02:57:49;;;;;;;11.65;9.38;;;18.20;28.80;;;;;;5050929;28;20055;-54
2022/12/16 03:00:19;;;;;;;12.35;8.60;;;18.20;28.80;;;;;;5052950;28;20029;-55
2022/12/16 03:03:04;;;;;;;11.90;8.90;;;18.20;28.80;;;;;;5034532;28;20021;-55
2022/12/16 03:05:40;;;;;;;11.85;8.27;;;18.20;28.80;;;;;;5029998;28;20025;-54
2022/12/16 03:08:13;;;;;;;11.38;9.30;;;18.20;28.80;;;;;;5052153;28;20097;-55
2022/12/16 03:10:47;;;;;;;10.73;8.38;;;18.20;28.90;;;;;;5055371;28;20036;-57
2022/12/16 03:13:17;;;;;;;11.18;9.05;;;18.10;28.80;;;;;;5037358;28;20025;-52
2022/12/16 03:15:44;;;;;;;12.07;9.52;;;18.10;28.90;;;;;;5054476;28;20045;-55
2022/12/16 03:18:12;;;;;;;11.55;9.07;;;18.10;28.80;;;;;;5052387;28;20041;-52
2022/12/16 03:20:44;;;;;;;13.90;9.00;;;18.10;28.80;;;;;;5035138;28;20059;-53
2022/12/16 03:23:16;;;;;;;12.48;8.98;;;18.10;28.90;;;;;;5054509;28;20056;-57
2022/12/16 03:25:44;;;;;;;10.23;8.52;;;18.10;28.90;;;;;;5053845;28;20040;-53
2022/12/16 03:28:19;;;;;;;11.18;8.07;;;18.10;28.90;;;;;;5053931;28;20033;-52
2022/12/16 03:30:53;;;;;;;10.95;8.45;;;18.10;28.90;;;;;;5052723;28;20025;-53
2022/12/16 03:33:26;;;;;;;10.90;8.38;;;18.10;28.90;;;;;;5054445;28;20088;-53
2022/12/16 03:36:08;;;;;;;11.65;8.88;;;18.10;28.90;;;;;;5052835;28;20035;-57
2022/12/16 03:38:35;;;;;;;14.00;9.30;;;18.10;28.90;;;;;;5049762;28;20116;-53
2022/12/16 03:41:03;;;;;;;12.30;9.00;;;18.10;28.90;;;;;;5054947;28;20068;-54
2022/12/16 03:43:29;;;;;;;11.15;8.65;;;18.10;29.00;;;;;;5054591;28;20033;-56
2022/12/16 03:46:00;;;;;;;13.65;8.68;;;18.10;29.00;;;;;;5054845;28;20460;-56
2022/12/16 03:48:26;;;;;;;11.63;8.43;;;18.10;29.00;;;;;;5054624;28;20037;-58
2022/12/16 03:50:51;;;;;;;13.00;8.43;;;18.10;29.00;;;;;;5054067;28;20583;-58
2022/12/16 03:53:17;;;;;;;10.50;8.40;;;18.10;29.00;;;;;;5055259;28;20021;-53
2022/12/16 03:55:43;;;;;;;11.25;8.50;;;18.10;29.00;;;;;;5054654;28;20321;-54
2022/12/16 03:58:09;;;;;;;11.32;8.45;;;18.00;29.00;;;;;;5054414;28;20128;-53
2022/12/16 04:00:35;;;;;;;11.95;8.68;;;18.00;29.00;;;;;;5036702;28;20024;-56
2022/12/16 04:03:01;;;;;;;11.20;7.93;;;18.00;29.00;;;;;;5053868;28;20021;-56
2022/12/16 04:05:27;;;;;;;13.38;8.90;;;18.00;29.00;;;;;;5053418;28;20036;-58
2022/12/16 04:07:53;;;;;;;12.30;9.13;;;18.00;29.00;;;;;;5035989;28;20040;-54
2022/12/16 04:24:17;;;;;;;11.57;8.38;;;18.00;29.00;;;;;;5054414;28;20029;-57
2022/12/16 04:24:18;;;;;;;13.45;9.50;;;18.00;29.20;;;;;;5047466;28;20104;-54
2022/12/16 04:29:29;;;;;;;;;;;18.00;29.30;;;;;;5052911;28;20033;-54
2022/12/16 04:31:55;;;;;;;13.15;8.70;;;17.90;29.30;;;;;;5050005;28;19921;-59
2022/12/16 04:34:24;;;;;;;13.05;9.10;;;17.90;29.30;;;;;;5049735;28;20025;-57
